sensor_id;sensor_type;location;lat;lon;timestamp;P1;durP1;ratioP1;P2;durP2;ratioP2
65636;SDS011;52327;42.622;23.316;2022-12-16T00:00:22;5.47;;;3.97;;
65636;SDS011;52327;42.622;23.316;2022-12-16T00:02:48;3.80;;;3.15;;
65636;SDS011;52327;42.622;23.316;2022-12-16T00:05:14;7.70;;;3.67;;
65636;SDS011;52327;42.622;23.316;2022-12-16T00:07:40;10.13;;;3.80;;
65636;SDS011;52327;42.622;23.316;2022-12-16T00:10:05;3.58;;;3.03;;
65636;SDS011;52327;42.622;23.316;2022-12-16T00:12:32;5.15;;;3.83;;
65636;SDS011;52327;42.622;23.316;2022-12-16T00:14:57;6.80;;;3.70;;
65636;SDS011;52327;42.622;23.316;2022-12-16T00:17:22;4.75;;;3.40;;
65636;SDS011;52327;42.622;23.316;2022-12-16T00:19:48;4.88;;;2.58;;
65636;SDS011;52327;42.622;23.316;2022-12-16T00:22:13;4.88;;;3.40;;
65636;SDS011;52327;42.622;23.316;2022-12-16T00:24:39;6.60;;;3.55;;
65636;SDS011;52327;42.622;23.316;2022-12-16T00:27:04;7.05;;;4.43;;
65636;SDS011;52327;42.622;23.316;2022-12-16T00:29:29;6.32;;;4.88;;
65636;SDS011;52327;42.622;23.316;2022-12-16T00:31:55;8.48;;;4.35;;
65636;SDS011;52327;42.622;23.316;2022-12-16T00:34:20;8.70;;;5.45;;
65636;SDS011;52327;42.622;23.316;2022-12-16T00:36:46;14.38;;;5.82;;
65636;SDS011;52327;42.622;23.316;2022-12-16T00:39:11;5.30;;;3.30;;
65636;SDS011;52327;42.622;23.316;2022-12-16T00:41:37;4.63;;;4.15;;
65636;SDS011;52327;42.622;23.316;2022-12-16T00:44:02;4.00;;;3.58;;
65636;SDS011;52327;42.622;23.316;2022-12-16T00:46:30;8.80;;;5.70;;
65636;SDS011;52327;42.622;23.316;2022-12-16T00:48:55;9.25;;;4.20;;
65636;SDS011;52327;42.622;23.316;2022-12-16T00:51:21;9.32;;;3.58;;
65636;SDS011;52327;42.622;23.316;2022-12-16T00:53:46;4.45;;;1.65;;
65636;SDS011;52327;42.622;23.316;2022-12-16T00:56:12;5.65;;;2.58;;
65636;SDS011;52327;42.622;23.316;2022-12-16T00:58:42;2.67;;;1.85;;
65636;SDS011;52327;42.622;23.316;2022-12-16T01:01:08;1.65;;;1.50;;
65636;SDS011;52327;42.622;23.316;2022-12-16T01:03:33;2.40;;;1.65;;
65636;SDS011;52327;42.622;23.316;2022-12-16T01:05:59;3.38;;;3.00;;
65636;SDS011;52327;42.622;23.316;2022-12-16T01:08:25;3.88;;;3.05;;
65636;SDS011;52327;42.622;23.316;2022-12-16T01:10:54;4.15;;;3.15;;
65636;SDS011;52327;42.622;23.316;2022-12-16T01:13:21;4.30;;;2.78;;
65636;SDS011;52327;42.622;23.316;2022-12-16T01:15:48;9.13;;;5.50;;
65636;SDS011;52327;42.622;23.316;2022-12-16T01:18:14;6.90;;;4.43;;
65636;SDS011;52327;42.622;23.316;2022-12-16T01:20:40;4.88;;;3.80;;
65636;SDS011;52327;42.622;23.316;2022-12-16T01:23:05;6.60;;;3.75;;
65636;SDS011;52327;42.622;23.316;2022-12-16T01:25:31;5.60;;;4.70;;
65636;SDS011;52327;42.622;23.316;2022-12-16T01:27:57;9.63;;;6.20;;
65636;SDS011;52327;42.622;23.316;2022-12-16T01:30:22;8.25;;;4.60;;
65636;SDS011;52327;42.622;23.316;2022-12-16T01:32:48;6.63;;;5.25;;
65636;SDS011;52327;42.622;23.316;2022-12-16T01:35:14;6.30;;;3.83;;
65636;SDS011;52327;42.622;23.316;2022-12-16T01:37:40;11.50;;;6.40;;
65636;SDS011;52327;42.622;23.316;2022-12-16T01:40:06;5.70;;;4.88;;
65636;SDS011;52327;42.622;23.316;2022-12-16T01:42:33;7.30;;;4.63;;
65636;SDS011;52327;42.622;23.316;2022-12-16T01:47:52;8.25;;;5.78;;
65636;SDS011;52327;42.622;23.316;2022-12-16T01:50:20;12.82;;;7.90;;
65636;SDS011;52327;42.622;23.316;2022-12-16T01:52:47;8.15;;;5.28;;
65636;SDS011;52327;42.622;23.316;2022-12-16T01:55:17;10.55;;;6.85;;
65636;SDS011;52327;42.622;23.316;2022-12-16T01:57:58;10.50;;;6.53;;
65636;SDS011;52327;42.622;23.316;2022-12-16T02:00:36;8.85;;;5.03;;
65636;SDS011;52327;42.622;23.316;2022-12-16T02:03:04;7.30;;;4.20;;
65636;SDS011;52327;42.622;23.316;2022-12-16T02:05:30;6.82;;;3.72;;
65636;SDS011;52327;42.622;23.316;2022-12-16T02:15:49;4.68;;;2.95;;
65636;SDS011;52327;42.622;23.316;2022-12-16T02:18:26;9.13;;;3.95;;
65636;SDS011;52327;42.622;23.316;2022-12-16T02:40:02;3.33;;;2.47;;
65636;SDS011;52327;42.622;23.316;2022-12-16T02:42:36;4.00;;;2.13;;
65636;SDS011;52327;42.622;23.316;2022-12-16T02:45:11;3.38;;;2.22;;
65636;SDS011;52327;42.622;23.316;2022-12-16T02:47:40;4.15;;;2.40;;
65636;SDS011;52327;42.622;23.316;2022-12-16T02:50:19;4.07;;;2.13;;
65636;SDS011;52327;42.622;23.316;2022-12-16T02:52:49;4.20;;;3.67;;
65636;SDS011;52327;42.622;23.316;2022-12-16T02:55:15;9.40;;;4.60;;
65636;SDS011;52327;42.622;23.316;2022-12-16T02:57:57;8.00;;;4.38;;
65636;SDS011;52327;42.622;23.316;2022-12-16T03:00:38;9.15;;;5.18;;
65636;SDS011;52327;42.622;23.316;2022-12-16T03:03:13;4.35;;;3.95;;
65636;SDS011;52327;42.622;23.316;2022-12-16T03:05:51;4.78;;;3.17;;
65636;SDS011;52327;42.622;23.316;2022-12-16T03:08:21;4.72;;;2.30;;
65636;SDS011;52327;42.622;23.316;2022-12-16T03:10:58;5.38;;;3.78;;
65636;SDS011;52327;42.622;23.316;2022-12-16T03:13:26;5.15;;;4.15;;
65636;SDS011;52327;42.622;23.316;2022-12-16T03:15:56;2.08;;;1.80;;
65636;SDS011;52327;42.622;23.316;2022-12-16T03:18:24;5.90;;;2.15;;
65636;SDS011;52327;42.622;23.316;2022-12-16T03:20:52;1.90;;;1.17;;
65636;SDS011;52327;42.622;23.316;2022-12-16T03:23:23;12.38;;;3.50;;
65636;SDS011;52327;42.622;23.316;2022-12-16T03:25:56;2.65;;;1.60;;
65636;SDS011;52327;42.622;23.316;2022-12-16T03:28:38;3.15;;;2.65;;
65636;SDS011;52327;42.622;23.316;2022-12-16T03:31:56;1.70;;;1.50;;
65636;SDS011;52327;42.622;23.316;2022-12-16T03:36:53;4.60;;;2.78;;
65636;SDS011;52327;42.622;23.316;2022-12-16T03:39:24;2.25;;;2.00;;
65636;SDS011;52327;42.622;23.316;2022-12-16T03:41:51;2.05;;;1.70;;
65636;SDS011;52327;42.622;23.316;2022-12-16T03:44:21;3.42;;;2.65;;
65636;SDS011;52327;42.622;23.316;2022-12-16T03:46:47;5.35;;;3.15;;
65636;SDS011;52327;42.622;23.316;2022-12-16T03:49:13;6.35;;;4.40;;
65636;SDS011;52327;42.622;23.316;2022-12-16T03:51:38;5.90;;;2.70;;
65636;SDS011;52327;42.622;23.316;2022-12-16T03:54:04;10.75;;;6.40;;
65636;SDS011;52327;42.622;23.316;2022-12-16T03:56:29;7.65;;;4.50;;
65636;SDS011;52327;42.622;23.316;2022-12-16T03:58:55;11.90;;;6.72;;
65636;SDS011;52327;42.622;23.316;2022-12-16T04:01:20;6.47;;;5.30;;
65636;SDS011;52327;42.622;23.316;2022-12-16T04:03:47;7.40;;;3.97;;
65636;SDS011;52327;42.622;23.316;2022-12-16T04:06:12;6.05;;;4.00;;
65636;SDS011;52327;42.622;23.316;2022-12-16T04:08:42;7.05;;;4.95;;
65636;SDS011;52327;42.622;23.316;2022-12-16T04:11:11;7.82;;;5.50;;
65636;SDS011;52327;42.622;23.316;2022-12-16T04:13:56;10.70;;;6.88;;
65636;SDS011;52327;42.622;23.316;2022-12-16T04:16:40;15.45;;;7.18;;
65636;SDS011;52327;42.622;23.316;2022-12-16T04:19:26;7.43;;;6.50;;
65636;SDS011;52327;42.622;23.316;2022-12-16T04:22:14;8.68;;;5.13;;
65636;SDS011;52327;42.622;23.316;2022-12-16T04:25:07;15.63;;;6.10;;
65636;SDS011;52327;42.622;23.316;2022-12-16T04:27:36;10.20;;;6.07;;
65636;SDS011;52327;42.622;23.316;2022-12-16T04:30:02;10.50;;;5.47;;
65636;SDS011;52327;42.622;23.316;2022-12-16T04:32:44;10.43;;;6.00;;
65636;SDS011;52327;42.622;23.316;2022-12-16T04:35:54;5.70;;;3.17;;
65636;SDS011;52327;42.622;23.316;2022-12-16T04:38:38;4.65;;;2.22;;
65636;SDS011;52327;42.622;23.316;2022-12-16T04:41:22;3.83;;;2.55;;
65636;SDS011;52327;42.622;23.316;2022-12-16T04:44:06;4.97;;;3.50;;
65636;SDS011;52327;42.622;23.316;2022-12-16T04:46:50;4.85;;;2.55;;
65636;SDS011;52327;42.622;23.316;2022-12-16T04:49:34;5.28;;;3.75;;
65636;SDS011;52327;42.622;23.316;2022-12-16T04:52:18;10.50;;;5.82;;
65636;SDS011;52327;42.622;23.316;2022-12-16T04:55:02;4.75;;;3.35;;
65636;SDS011;52327;42.622;23.316;2022-12-16T04:57:48;4.03;;;2.65;;
65636;SDS011;52327;42.622;23.316;2022-12-16T05:00:34;4.95;;;2.35;;
65636;SDS011;52327;42.622;23.316;2022-12-16T05:03:18;5.85;;;3.42;;
65636;SDS011;52327;42.622;23.316;2022-12-16T05:06:02;5.43;;;2.80;;
65636;SDS011;52327;42.622;23.316;2022-12-16T05:08:46;5.63;;;5.05;;
65636;SDS011;52327;42.622;23.316;2022-12-16T05:11:30;6.57;;;3.78;;
65636;SDS011;52327;42.622;23.316;2022-12-16T05:14:14;8.90;;;3.85;;
65636;SDS011;52327;42.622;23.316;2022-12-16T05:16:58;11.68;;;5.72;;
65636;SDS011;52327;42.622;23.316;2022-12-16T05:19:41;8.32;;;5.70;;
65636;SDS011;52327;42.622;23.316;2022-12-16T05:22:26;6.82;;;4.72;;
65636;SDS011;52327;42.622;23.316;2022-12-16T05:25:09;5.45;;;4.32;;
65636;SDS011;52327;42.622;23.316;2022-12-16T05:27:53;9.50;;;6.43;;
65636;SDS011;52327;42.622;23.316;2022-12-16T05:30:37;11.70;;;6.90;;
65636;SDS011;52327;42.622;23.316;2022-12-16T05:33:22;5.22;;;3.67;;
65636;SDS011;52327;42.622;23.316;2022-12-16T05:36:06;8.82;;;5.07;;
65636;SDS011;52327;42.622;23.316;2022-12-16T05:38:51;8.65;;;5.30;;
65636;SDS011;52327;42.622;23.316;2022-12-16T05:41:35;6.40;;;4.20;;
65636;SDS011;52327;42.622;23.316;2022-12-16T05:44:20;11.23;;;8.13;;
65636;SDS011;52327;42.622;23.316;2022-12-16T05:47:04;12.80;;;6.70;;
65636;SDS011;52327;42.622;23.316;2022-12-16T05:49:48;8.60;;;6.45;;
65636;SDS011;52327;42.622;23.316;2022-12-16T05:52:32;15.70;;;7.88;;
65636;SDS011;52327;42.622;23.316;2022-12-16T05:55:16;16.17;;;6.25;;
65636;SDS011;52327;42.622;23.316;2022-12-16T05:58:00;15.07;;;5.88;;
65636;SDS011;52327;42.622;23.316;2022-12-16T06:00:44;7.28;;;5.60;;
65636;SDS011;52327;42.622;23.316;2022-12-16T06:03:28;9.48;;;6.18;;
65636;SDS011;52327;42.622;23.316;2022-12-16T06:06:12;9.93;;;6.00;;
65636;SDS011;52327;42.622;23.316;2022-12-16T06:08:56;11.25;;;7.78;;
65636;SDS011;52327;42.622;23.316;2022-12-16T06:11:40;29.35;;;9.95;;
65636;SDS011;52327;42.622;23.316;2022-12-16T06:14:24;18.92;;;8.65;;
65636;SDS011;52327;42.622;23.316;2022-12-16T06:17:07;13.60;;;7.03;;
65636;SDS011;52327;42.622;23.316;2022-12-16T06:19:51;10.95;;;7.82;;
65636;SDS011;52327;42.622;23.316;2022-12-16T06:22:35;19.45;;;8.13;;
65636;SDS011;52327;42.622;23.316;2022-12-16T06:25:19;9.77;;;5.68;;
65636;SDS011;52327;42.622;23.316;2022-12-16T06:28:03;11.27;;;6.15;;
65636;SDS011;52327;42.622;23.316;2022-12-16T06:30:47;7.22;;;6.18;;
65636;SDS011;52327;42.622;23.316;2022-12-16T06:33:31;13.82;;;8.23;;
65636;SDS011;52327;42.622;23.316;2022-12-16T06:36:15;13.98;;;8.13;;
65636;SDS011;52327;42.622;23.316;2022-12-16T06:38:59;9.18;;;7.25;;
65636;SDS011;52327;42.622;23.316;2022-12-16T06:41:43;10.60;;;6.82;;
65636;SDS011;52327;42.622;23.316;2022-12-16T06:44:27;8.18;;;6.65;;
65636;SDS011;52327;42.622;23.316;2022-12-16T06:47:11;10.13;;;5.95;;
65636;SDS011;52327;42.622;23.316;2022-12-16T06:49:55;11.20;;;7.75;;
65636;SDS011;52327;42.622;23.316;2022-12-16T06:52:42;17.27;;;10.18;;
65636;SDS011;52327;42.622;23.316;2022-12-16T06:55:26;11.18;;;8.95;;
65636;SDS011;52327;42.622;23.316;2022-12-16T06:58:11;15.65;;;7.13;;
65636;SDS011;52327;42.622;23.316;2022-12-16T07:00:55;10.43;;;7.90;;
65636;SDS011;52327;42.622;23.316;2022-12-16T07:03:39;37.65;;;19.40;;
65636;SDS011;52327;42.622;23.316;2022-12-16T07:06:23;14.35;;;10.63;;
65636;SDS011;52327;42.622;23.316;2022-12-16T07:09:08;12.25;;;8.18;;
65636;SDS011;52327;42.622;23.316;2022-12-16T07:11:52;16.58;;;8.00;;
65636;SDS011;52327;42.622;23.316;2022-12-16T07:14:36;12.70;;;6.82;;
65636;SDS011;52327;42.622;23.316;2022-12-16T07:17:20;10.25;;;6.82;;
65636;SDS011;52327;42.622;23.316;2022-12-16T07:20:04;7.07;;;5.53;;
65636;SDS011;52327;42.622;23.316;2022-12-16T07:22:49;8.68;;;6.15;;
65636;SDS011;52327;42.622;23.316;2022-12-16T07:25:33;12.32;;;7.03;;
65636;SDS011;52327;42.622;23.316;2022-12-16T07:28:16;18.98;;;9.10;;
65636;SDS011;52327;42.622;23.316;2022-12-16T07:31:00;14.60;;;8.00;;
65636;SDS011;52327;42.622;23.316;2022-12-16T07:33:44;11.90;;;7.88;;
65636;SDS011;52327;42.622;23.316;2022-12-16T07:36:28;11.20;;;6.93;;
65636;SDS011;52327;42.622;23.316;2022-12-16T07:39:12;18.67;;;9.05;;
65636;SDS011;52327;42.622;23.316;2022-12-16T07:41:56;11.38;;;6.50;;
65636;SDS011;52327;42.622;23.316;2022-12-16T07:44:40;13.98;;;6.47;;
65636;SDS011;52327;42.622;23.316;2022-12-16T07:47:24;14.90;;;7.53;;
65636;SDS011;52327;42.622;23.316;2022-12-16T07:50:08;14.68;;;7.57;;
65636;SDS011;52327;42.622;23.316;2022-12-16T07:52:55;14.63;;;8.45;;
65636;SDS011;52327;42.622;23.316;2022-12-16T07:55:43;13.57;;;8.55;;
65636;SDS011;52327;42.622;23.316;2022-12-16T07:58:28;22.75;;;12.18;;
65636;SDS011;52327;42.622;23.316;2022-12-16T08:01:12;15.40;;;10.95;;
65636;SDS011;52327;42.622;23.316;2022-12-16T08:03:56;10.48;;;6.38;;
65636;SDS011;52327;42.622;23.316;2022-12-16T08:06:40;15.05;;;8.18;;
65636;SDS011;52327;42.622;23.316;2022-12-16T08:09:24;11.88;;;7.63;;
65636;SDS011;52327;42.622;23.316;2022-12-16T08:12:08;15.77;;;7.20;;
65636;SDS011;52327;42.622;23.316;2022-12-16T08:14:52;13.57;;;8.80;;
65636;SDS011;52327;42.622;23.316;2022-12-16T08:17:47;13.43;;;9.27;;
65636;SDS011;52327;42.622;23.316;2022-12-16T08:20:33;15.47;;;8.27;;
65636;SDS011;52327;42.622;23.316;2022-12-16T08:23:17;13.48;;;7.30;;
65636;SDS011;52327;42.622;23.316;2022-12-16T08:26:01;14.43;;;8.48;;
65636;SDS011;52327;42.622;23.316;2022-12-16T08:28:45;8.77;;;6.35;;
65636;SDS011;52327;42.622;23.316;2022-12-16T08:31:29;13.75;;;8.70;;
65636;SDS011;52327;42.622;23.316;2022-12-16T08:34:13;11.50;;;7.53;;
65636;SDS011;52327;42.622;23.316;2022-12-16T08:36:56;16.63;;;8.57;;
65636;SDS011;52327;42.622;23.316;2022-12-16T08:39:40;13.68;;;9.02;;
65636;SDS011;52327;42.622;23.316;2022-12-16T08:42:24;32.22;;;9.43;;
65636;SDS011;52327;42.622;23.316;2022-12-16T08:45:08;30.63;;;8.57;;
65636;SDS011;52327;42.622;23.316;2022-12-16T08:47:52;12.60;;;6.32;;
65636;SDS011;52327;42.622;23.316;2022-12-16T08:50:36;10.13;;;8.25;;
65636;SDS011;52327;42.622;23.316;2022-12-16T08:53:20;15.05;;;7.95;;
65636;SDS011;52327;42.622;23.316;2022-12-16T08:56:04;10.60;;;6.50;;
65636;SDS011;52327;42.622;23.316;2022-12-16T08:58:49;9.00;;;6.13;;
65636;SDS011;52327;42.622;23.316;2022-12-16T09:01:32;19.02;;;8.13;;
65636;SDS011;52327;42.622;23.316;2022-12-16T09:04:16;19.33;;;10.32;;
65636;SDS011;52327;42.622;23.316;2022-12-16T09:07:00;13.27;;;7.82;;
65636;SDS011;52327;42.622;23.316;2022-12-16T09:09:44;8.57;;;6.45;;
65636;SDS011;52327;42.622;23.316;2022-12-16T09:12:28;10.15;;;6.68;;
65636;SDS011;52327;42.622;23.316;2022-12-16T09:15:12;15.63;;;7.40;;
65636;SDS011;52327;42.622;23.316;2022-12-16T09:17:56;7.88;;;5.00;;
65636;SDS011;52327;42.622;23.316;2022-12-16T09:20:40;12.18;;;6.93;;
65636;SDS011;52327;42.622;23.316;2022-12-16T09:23:35;18.52;;;9.27;;
65636;SDS011;52327;42.622;23.316;2022-12-16T09:26:19;9.80;;;6.15;;
65636;SDS011;52327;42.622;23.316;2022-12-16T09:29:14;12.40;;;6.55;;
65636;SDS011;52327;42.622;23.316;2022-12-16T09:31:57;10.52;;;7.07;;
65636;SDS011;52327;42.622;23.316;2022-12-16T09:34:41;15.70;;;6.85;;
65636;SDS011;52327;42.622;23.316;2022-12-16T09:37:25;13.13;;;6.75;;
65636;SDS011;52327;42.622;23.316;2022-12-16T09:40:13;12.23;;;6.00;;
65636;SDS011;52327;42.622;23.316;2022-12-16T09:46:16;9.57;;;6.75;;
65636;SDS011;52327;42.622;23.316;2022-12-16T09:49:10;15.65;;;8.52;;
65636;SDS011;52327;42.622;23.316;2022-12-16T09:52:04;16.15;;;8.88;;
65636;SDS011;52327;42.622;23.316;2022-12-16T09:54:54;13.38;;;6.57;;
65636;SDS011;52327;42.622;23.316;2022-12-16T09:57:38;12.98;;;6.82;;
65636;SDS011;52327;42.622;23.316;2022-12-16T10:00:24;16.60;;;8.70;;
65636;SDS011;52327;42.622;23.316;2022-12-16T10:03:26;20.10;;;8.40;;
65636;SDS011;52327;42.622;23.316;2022-12-16T10:09:33;14.80;;;9.63;;
65636;SDS011;52327;42.622;23.316;2022-12-16T10:12:53;15.57;;;8.23;;
65636;SDS011;52327;42.622;23.316;2022-12-16T10:27:59;17.33;;;9.02;;
65636;SDS011;52327;42.622;23.316;2022-12-16T10:30:53;15.27;;;9.48;;
65636;SDS011;52327;42.622;23.316;2022-12-16T10:33:37;22.33;;;9.23;;
65636;SDS011;52327;42.622;23.316;2022-12-16T10:36:22;17.95;;;10.43;;
65636;SDS011;52327;42.622;23.316;2022-12-16T10:39:15;17.52;;;8.25;;
65636;SDS011;52327;42.622;23.316;2022-12-16T10:42:12;17.70;;;8.50;;
65636;SDS011;52327;42.622;23.316;2022-12-16T10:45:06;18.73;;;9.23;;
65636;SDS011;52327;42.622;23.316;2022-12-16T10:48:19;23.35;;;11.43;;
65636;SDS011;52327;42.622;23.316;2022-12-16T10:51:11;16.13;;;10.32;;
65636;SDS011;52327;42.622;23.316;2022-12-16T10:53:58;10.93;;;6.07;;
65636;SDS011;52327;42.622;23.316;2022-12-16T10:57:04;15.80;;;8.35;;
65636;SDS011;52327;42.622;23.316;2022-12-16T11:00:10;27.13;;;9.00;;
65636;SDS011;52327;42.622;23.316;2022-12-16T11:03:21;19.00;;;11.13;;
65636;SDS011;52327;42.622;23.316;2022-12-16T11:09:23;18.48;;;10.98;;
65636;SDS011;52327;42.622;23.316;2022-12-16T11:21:02;18.83;;;11.15;;
65636;SDS011;52327;42.622;23.316;2022-12-16T11:26:52;21.33;;;12.30;;
65636;SDS011;52327;42.622;23.316;2022-12-16T11:29:48;16.40;;;10.45;;
65636;SDS011;52327;42.622;23.316;2022-12-16T11:32:36;25.50;;;12.52;;
65636;SDS011;52327;42.622;23.316;2022-12-16T11:35:26;24.92;;;13.90;;
65636;SDS011;52327;42.622;23.316;2022-12-16T11:38:17;24.52;;;13.80;;
65636;SDS011;52327;42.622;23.316;2022-12-16T11:41:05;10.75;;;5.07;;
65636;SDS011;52327;42.622;23.316;2022-12-16T11:43:51;28.58;;;15.73;;
65636;SDS011;52327;42.622;23.316;2022-12-16T11:46:37;30.33;;;15.30;;
65636;SDS011;52327;42.622;23.316;2022-12-16T11:49:23;23.15;;;15.18;;
65636;SDS011;52327;42.622;23.316;2022-12-16T11:52:12;26.85;;;14.38;;
65636;SDS011;52327;42.622;23.316;2022-12-16T11:58:15;26.15;;;12.70;;
65636;SDS011;52327;42.622;23.316;2022-12-16T12:01:02;24.10;;;12.10;;
65636;SDS011;52327;42.622;23.316;2022-12-16T12:03:53;23.80;;;13.85;;
65636;SDS011;52327;42.622;23.316;2022-12-16T12:06:46;18.98;;;10.82;;
65636;SDS011;52327;42.622;23.316;2022-12-16T12:09:33;16.52;;;8.95;;
65636;SDS011;52327;42.622;23.316;2022-12-16T12:15:34;23.08;;;13.00;;
65636;SDS011;52327;42.622;23.316;2022-12-16T12:21:42;11.68;;;6.95;;
65636;SDS011;52327;42.622;23.316;2022-12-16T12:24:52;13.05;;;8.15;;
65636;SDS011;52327;42.622;23.316;2022-12-16T12:31:23;12.05;;;5.07;;
65636;SDS011;52327;42.622;23.316;2022-12-16T12:34:43;8.88;;;5.43;;
65636;SDS011;52327;42.622;23.316;2022-12-16T12:43:28;7.35;;;3.92;;
65636;SDS011;52327;42.622;23.316;2022-12-16T12:46:21;4.05;;;2.70;;
65636;SDS011;52327;42.622;23.316;2022-12-16T12:55:23;5.68;;;2.95;;
65636;SDS011;52327;42.622;23.316;2022-12-16T12:58:17;4.88;;;2.20;;
65636;SDS011;52327;42.622;23.316;2022-12-16T13:01:02;6.68;;;3.90;;
65636;SDS011;52327;42.622;23.316;2022-12-16T13:03:50;5.78;;;3.78;;
65636;SDS011;52327;42.622;23.316;2022-12-16T13:06:50;5.32;;;3.55;;
65636;SDS011;52327;42.622;23.316;2022-12-16T13:09:35;3.65;;;1.77;;
65636;SDS011;52327;42.622;23.316;2022-12-16T13:12:28;3.13;;;1.50;;
65636;SDS011;52327;42.622;23.316;2022-12-16T13:15:18;0.90;;;0.45;;
65636;SDS011;52327;42.622;23.316;2022-12-16T13:18:19;0.38;;;0.38;;
65636;SDS011;52327;42.622;23.316;2022-12-16T13:21:41;1.15;;;0.20;;
65636;SDS011;52327;42.622;23.316;2022-12-16T13:27:09;0.30;;;0.22;;
65636;SDS011;52327;42.622;23.316;2022-12-16T13:32:58;0.30;;;0.30;;
65636;SDS011;52327;42.622;23.316;2022-12-16T13:35:55;0.93;;;0.40;;
65636;SDS011;52327;42.622;23.316;2022-12-16T13:38:47;1.23;;;0.70;;
65636;SDS011;52327;42.622;23.316;2022-12-16T13:53:25;0.98;;;0.28;;
65636;SDS011;52327;42.622;23.316;2022-12-16T13:56:15;0.52;;;0.20;;
65636;SDS011;52327;42.622;23.316;2022-12-16T13:59:04;0.35;;;0.28;;
65636;SDS011;52327;42.622;23.316;2022-12-16T14:01:55;0.30;;;0.20;;
65636;SDS011;52327;42.622;23.316;2022-12-16T14:04:44;0.45;;;0.40;;
65636;SDS011;52327;42.622;23.316;2022-12-16T14:07:32;0.35;;;0.22;;
65636;SDS011;52327;42.622;23.316;2022-12-16T14:10:28;0.20;;;0.20;;
65636;SDS011;52327;42.622;23.316;2022-12-16T14:16:54;0.77;;;0.50;;
65636;SDS011;52327;42.622;23.316;2022-12-16T14:19:29;0.47;;;0.45;;
65636;SDS011;52327;42.622;23.316;2022-12-16T14:22:40;4.28;;;2.15;;
65636;SDS011;52327;42.622;23.316;2022-12-16T14:25:47;5.38;;;2.95;;
65636;SDS011;52327;42.622;23.316;2022-12-16T14:28:39;4.63;;;2.67;;
65636;SDS011;52327;42.622;23.316;2022-12-16T14:31:28;4.90;;;3.25;;
65636;SDS011;52327;42.622;23.316;2022-12-16T14:37:21;3.58;;;2.10;;
65636;SDS011;52327;42.622;23.316;2022-12-16T14:40:21;1.67;;;1.02;;
65636;SDS011;52327;42.622;23.316;2022-12-16T14:43:14;0.50;;;0.40;;
65636;SDS011;52327;42.622;23.316;2022-12-16T14:46:15;1.27;;;0.50;;
65636;SDS011;52327;42.622;23.316;2022-12-16T14:49:17;0.60;;;0.40;;
65636;SDS011;52327;42.622;23.316;2022-12-16T14:52:18;0.88;;;0.63;;
65636;SDS011;52327;42.622;23.316;2022-12-16T14:58:03;0.65;;;0.57;;
65636;SDS011;52327;42.622;23.316;2022-12-16T15:01:00;0.63;;;0.30;;
65636;SDS011;52327;42.622;23.316;2022-12-16T15:04:08;0.45;;;0.32;;
65636;SDS011;52327;42.622;23.316;2022-12-16T15:06:59;0.20;;;0.20;;
65636;SDS011;52327;42.622;23.316;2022-12-16T15:09:46;0.40;;;0.40;;
65636;SDS011;52327;42.622;23.316;2022-12-16T15:12:37;2.30;;;0.50;;
65636;SDS011;52327;42.622;23.316;2022-12-16T15:15:37;4.78;;;0.70;;
65636;SDS011;52327;42.622;23.316;2022-12-16T15:18:39;0.55;;;0.50;;
65636;SDS011;52327;42.622;23.316;2022-12-16T15:21:27;0.50;;;0.50;;
65636;SDS011;52327;42.622;23.316;2022-12-16T15:24:21;0.55;;;0.43;;
65636;SDS011;52327;42.622;23.316;2022-12-16T15:27:14;0.45;;;0.30;;
65636;SDS011;52327;42.622;23.316;2022-12-16T15:33:15;0.43;;;0.30;;
65636;SDS011;52327;42.622;23.316;2022-12-16T15:36:01;0.47;;;0.47;;
65636;SDS011;52327;42.622;23.316;2022-12-16T15:38:46;0.30;;;0.30;;
65636;SDS011;52327;42.622;23.316;2022-12-16T15:41:33;0.40;;;0.40;;
65636;SDS011;52327;42.622;23.316;2022-12-16T15:44:20;0.80;;;0.55;;
65636;SDS011;52327;42.622;23.316;2022-12-16T15:47:18;0.75;;;0.28;;
65636;SDS011;52327;42.622;23.316;2022-12-16T15:50:14;0.65;;;0.40;;
65636;SDS011;52327;42.622;23.316;2022-12-16T15:59:27;1.10;;;0.60;;
65636;SDS011;52327;42.622;23.316;2022-12-16T16:02:17;1.48;;;0.52;;
65636;SDS011;52327;42.622;23.316;2022-12-16T16:05:09;1.23;;;0.50;;
65636;SDS011;52327;42.622;23.316;2022-12-16T16:07:54;0.40;;;0.40;;
65636;SDS011;52327;42.622;23.316;2022-12-16T16:10:40;0.63;;;0.40;;
65636;SDS011;52327;42.622;23.316;2022-12-16T16:13:25;0.50;;;0.25;;
65636;SDS011;52327;42.622;23.316;2022-12-16T16:16:09;0.75;;;0.40;;
65636;SDS011;52327;42.622;23.316;2022-12-16T16:18:54;2.10;;;0.60;;
65636;SDS011;52327;42.622;23.316;2022-12-16T16:21:38;0.20;;;0.20;;
65636;SDS011;52327;42.622;23.316;2022-12-16T16:24:22;3.03;;;0.40;;
65636;SDS011;52327;42.622;23.316;2022-12-16T16:27:07;0.70;;;0.38;;
65636;SDS011;52327;42.622;23.316;2022-12-16T16:29:54;0.32;;;0.32;;
65636;SDS011;52327;42.622;23.316;2022-12-16T16:32:39;0.68;;;0.40;;
65636;SDS011;52327;42.622;23.316;2022-12-16T16:35:23;0.98;;;0.50;;
65636;SDS011;52327;42.622;23.316;2022-12-16T16:38:08;0.30;;;0.13;;
65636;SDS011;52327;42.622;23.316;2022-12-16T16:40:53;0.95;;;0.25;;
65636;SDS011;52327;42.622;23.316;2022-12-16T16:43:37;0.93;;;0.43;;
65636;SDS011;52327;42.622;23.316;2022-12-16T16:52:15;1.15;;;0.65;;
65636;SDS011;52327;42.622;23.316;2022-12-16T16:55:00;0.28;;;0.28;;
65636;SDS011;52327;42.622;23.316;2022-12-16T16:57:45;0.40;;;0.25;;
65636;SDS011;52327;42.622;23.316;2022-12-16T17:00:29;1.30;;;0.57;;
65636;SDS011;52327;42.622;23.316;2022-12-16T17:03:13;0.95;;;0.45;;
65636;SDS011;52327;42.622;23.316;2022-12-16T17:05:57;0.65;;;0.32;;
65636;SDS011;52327;42.622;23.316;2022-12-16T17:08:41;0.82;;;0.52;;
65636;SDS011;52327;42.622;23.316;2022-12-16T17:11:25;0.55;;;0.43;;
65636;SDS011;52327;42.622;23.316;2022-12-16T17:14:14;2.28;;;0.65;;
65636;SDS011;52327;42.622;23.316;2022-12-16T17:17:00;0.50;;;0.50;;
65636;SDS011;52327;42.622;23.316;2022-12-16T17:19:44;0.82;;;0.50;;
65636;SDS011;52327;42.622;23.316;2022-12-16T17:22:45;0.93;;;0.32;;
65636;SDS011;52327;42.622;23.316;2022-12-16T17:25:29;0.60;;;0.30;;
65636;SDS011;52327;42.622;23.316;2022-12-16T17:28:14;0.80;;;0.28;;
65636;SDS011;52327;42.622;23.316;2022-12-16T17:30:58;0.95;;;0.52;;
65636;SDS011;52327;42.622;23.316;2022-12-16T17:33:42;0.75;;;0.57;;
65636;SDS011;52327;42.622;23.316;2022-12-16T17:36:26;1.95;;;1.20;;
65636;SDS011;52327;42.622;23.316;2022-12-16T17:39:11;5.50;;;1.08;;
65636;SDS011;52327;42.622;23.316;2022-12-16T17:41:55;2.17;;;1.25;;
65636;SDS011;52327;42.622;23.316;2022-12-16T17:44:39;1.88;;;0.73;;
65636;SDS011;52327;42.622;23.316;2022-12-16T17:47:23;0.40;;;0.40;;
65636;SDS011;52327;42.622;23.316;2022-12-16T17:50:07;1.55;;;0.40;;
65636;SDS011;52327;42.622;23.316;2022-12-16T17:52:55;0.63;;;0.43;;
65636;SDS011;52327;42.622;23.316;2022-12-16T17:55:40;1.10;;;0.55;;
65636;SDS011;52327;42.622;23.316;2022-12-16T17:58:28;0.40;;;0.30;;
65636;SDS011;52327;42.622;23.316;2022-12-16T18:01:15;0.40;;;0.40;;
65636;SDS011;52327;42.622;23.316;2022-12-16T18:04:00;3.20;;;0.40;;
65636;SDS011;52327;42.622;23.316;2022-12-16T18:06:44;0.22;;;0.22;;
65636;SDS011;52327;42.622;23.316;2022-12-16T18:09:28;1.75;;;0.90;;
65636;SDS011;52327;42.622;23.316;2022-12-16T18:12:12;3.78;;;0.50;;
65636;SDS011;52327;42.622;23.316;2022-12-16T18:14:56;0.90;;;0.40;;